sensor_id;sensor_type;location;lat;lon;timestamp;P1;durP1;ratioP1;P2;durP2;ratioP2
16804;SDS011;8520;50.102;20.010;2023-08-31T00:02:26;103.72;;;97.43;;
16804;SDS011;8520;50.102;20.010;2023-08-31T00:04:54;102.65;;;96.40;;
16804;SDS011;8520;50.102;20.010;2023-08-31T00:07:22;101.90;;;95.57;;
16804;SDS011;8520;50.102;20.010;2023-08-31T00:09:51;101.32;;;95.32;;
16804;SDS011;8520;50.102;20.010;2023-08-31T00:12:20;102.82;;;96.70;;
16804;SDS011;8520;50.102;20.010;2023-08-31T00:14:49;103.05;;;96.88;;
16804;SDS011;8520;50.102;20.010;2023-08-31T00:17:17;104.07;;;97.97;;
16804;SDS011;8520;50.102;20.010;2023-08-31T00:19:45;105.22;;;98.82;;
16804;SDS011;8520;50.102;20.010;2023-08-31T00:22:13;103.50;;;97.05;;
16804;SDS011;8520;50.102;20.010;2023-08-31T00:24:41;103.72;;;97.50;;
16804;SDS011;8520;50.102;20.010;2023-08-31T00:27:10;102.28;;;96.10;;
16804;SDS011;8520;50.102;20.010;2023-08-31T00:29:39;104.15;;;98.03;;
16804;SDS011;8520;50.102;20.010;2023-08-31T00:32:07;104.20;;;97.90;;
16804;SDS011;8520;50.102;20.010;2023-08-31T00:34:34;105.80;;;99.50;;
16804;SDS011;8520;50.102;20.010;2023-08-31T00:37:03;106.25;;;99.75;;
16804;SDS011;8520;50.102;20.010;2023-08-31T00:39:31;107.90;;;101.30;;
16804;SDS011;8520;50.102;20.010;2023-08-31T00:42:00;106.93;;;100.47;;
16804;SDS011;8520;50.102;20.010;2023-08-31T00:44:33;108.25;;;101.60;;
16804;SDS011;8520;50.102;20.010;2023-08-31T00:47:01;107.88;;;101.28;;
16804;SDS011;8520;50.102;20.010;2023-08-31T00:49:30;108.85;;;102.15;;
16804;SDS011;8520;50.102;20.010;2023-08-31T00:51:58;110.60;;;103.60;;
16804;SDS011;8520;50.102;20.010;2023-08-31T00:54:26;109.40;;;102.80;;
16804;SDS011;8520;50.102;20.010;2023-08-31T00:56:54;110.60;;;103.65;;
16804;SDS011;8520;50.102;20.010;2023-08-31T00:59:24;110.50;;;103.60;;
16804;SDS011;8520;50.102;20.010;2023-08-31T01:01:57;111.70;;;104.45;;
16804;SDS011;8520;50.102;20.010;2023-08-31T01:04:27;111.10;;;104.22;;
16804;SDS011;8520;50.102;20.010;2023-08-31T01:06:59;111.90;;;104.70;;
16804;SDS011;8520;50.102;20.010;2023-08-31T01:09:31;109.93;;;103.07;;
16804;SDS011;8520;50.102;20.010;2023-08-31T01:12:04;111.10;;;103.90;;
16804;SDS011;8520;50.102;20.010;2023-08-31T01:14:34;111.85;;;104.78;;
16804;SDS011;8520;50.102;20.010;2023-08-31T01:17:07;109.20;;;102.50;;
16804;SDS011;8520;50.102;20.010;2023-08-31T01:19:40;109.13;;;102.28;;
16804;SDS011;8520;50.102;20.010;2023-08-31T01:22:13;111.43;;;104.20;;
16804;SDS011;8520;50.102;20.010;2023-08-31T01:24:47;112.53;;;105.32;;
16804;SDS011;8520;50.102;20.010;2023-08-31T01:27:15;111.68;;;104.55;;
16804;SDS011;8520;50.102;20.010;2023-08-31T01:29:44;114.25;;;106.88;;
16804;SDS011;8520;50.102;20.010;2023-08-31T01:32:12;114.82;;;107.35;;
16804;SDS011;8520;50.102;20.010;2023-08-31T01:34:40;115.53;;;108.10;;
16804;SDS011;8520;50.102;20.010;2023-08-31T01:37:08;115.97;;;108.25;;
16804;SDS011;8520;50.102;20.010;2023-08-31T01:39:39;117.90;;;110.10;;
16804;SDS011;8520;50.102;20.010;2023-08-31T01:42:11;117.25;;;109.57;;
16804;SDS011;8520;50.102;20.010;2023-08-31T01:44:40;116.85;;;109.15;;
16804;SDS011;8520;50.102;20.010;2023-08-31T01:47:09;117.03;;;109.30;;
16804;SDS011;8520;50.102;20.010;2023-08-31T01:49:38;117.25;;;109.68;;
16804;SDS011;8520;50.102;20.010;2023-08-31T01:52:06;117.97;;;110.38;;
16804;SDS011;8520;50.102;20.010;2023-08-31T01:54:34;118.40;;;110.65;;
16804;SDS011;8520;50.102;20.010;2023-08-31T01:57:05;117.07;;;109.57;;
16804;SDS011;8520;50.102;20.010;2023-08-31T01:59:44;117.20;;;109.45;;
16804;SDS011;8520;50.102;20.010;2023-08-31T02:02:12;116.57;;;109.03;;
16804;SDS011;8520;50.102;20.010;2023-08-31T02:04:42;116.88;;;109.28;;
16804;SDS011;8520;50.102;20.010;2023-08-31T02:07:10;114.55;;;107.28;;
16804;SDS011;8520;50.102;20.010;2023-08-31T02:09:38;114.47;;;107.15;;
16804;SDS011;8520;50.102;20.010;2023-08-31T02:12:06;113.35;;;106.18;;
16804;SDS011;8520;50.102;20.010;2023-08-31T02:14:36;113.18;;;106.03;;
16804;SDS011;8520;50.102;20.010;2023-08-31T02:17:06;113.93;;;106.75;;
16804;SDS011;8520;50.102;20.010;2023-08-31T02:19:34;112.50;;;105.38;;
16804;SDS011;8520;50.102;20.010;2023-08-31T02:22:03;112.57;;;105.30;;
16804;SDS011;8520;50.102;20.010;2023-08-31T02:24:31;113.00;;;105.88;;
16804;SDS011;8520;50.102;20.010;2023-08-31T02:26:59;112.88;;;105.88;;
16804;SDS011;8520;50.102;20.010;2023-08-31T02:29:27;113.30;;;106.20;;
16804;SDS011;8520;50.102;20.010;2023-08-31T02:31:56;114.10;;;106.90;;
16804;SDS011;8520;50.102;20.010;2023-08-31T02:34:25;112.55;;;105.43;;
16804;SDS011;8520;50.102;20.010;2023-08-31T02:36:53;114.93;;;107.72;;
16804;SDS011;8520;50.102;20.010;2023-08-31T02:39:21;114.40;;;107.00;;
16804;SDS011;8520;50.102;20.010;2023-08-31T02:41:49;114.68;;;107.43;;
16804;SDS011;8520;50.102;20.010;2023-08-31T02:44:17;115.47;;;108.05;;
16804;SDS011;8520;50.102;20.010;2023-08-31T02:46:46;118.00;;;110.15;;
16804;SDS011;8520;50.102;20.010;2023-08-31T02:49:14;113.95;;;106.63;;
16804;SDS011;8520;50.102;20.010;2023-08-31T02:51:43;116.28;;;108.70;;
16804;SDS011;8520;50.102;20.010;2023-08-31T02:54:11;116.97;;;109.35;;
16804;SDS011;8520;50.102;20.010;2023-08-31T02:56:39;118.72;;;111.03;;
16804;SDS011;8520;50.102;20.010;2023-08-31T02:59:07;119.15;;;111.45;;
16804;SDS011;8520;50.102;20.010;2023-08-31T03:01:35;118.55;;;110.80;;
16804;SDS011;8520;50.102;20.010;2023-08-31T03:04:03;119.07;;;111.07;;
16804;SDS011;8520;50.102;20.010;2023-08-31T03:06:31;117.72;;;109.90;;
16804;SDS011;8520;50.102;20.010;2023-08-31T03:09:01;119.32;;;111.43;;
16804;SDS011;8520;50.102;20.010;2023-08-31T03:11:30;119.80;;;111.80;;
16804;SDS011;8520;50.102;20.010;2023-08-31T03:13:58;119.25;;;111.25;;
16804;SDS011;8520;50.102;20.010;2023-08-31T03:16:26;121.68;;;113.38;;
16804;SDS011;8520;50.102;20.010;2023-08-31T03:18:54;121.00;;;113.10;;
16804;SDS011;8520;50.102;20.010;2023-08-31T03:21:22;121.68;;;113.43;;
16804;SDS011;8520;50.102;20.010;2023-08-31T03:23:50;121.43;;;113.28;;
16804;SDS011;8520;50.102;20.010;2023-08-31T03:26:19;123.95;;;115.53;;
16804;SDS011;8520;50.102;20.010;2023-08-31T03:28:47;123.53;;;115.05;;
16804;SDS011;8520;50.102;20.010;2023-08-31T03:31:15;123.65;;;115.25;;
16804;SDS011;8520;50.102;20.010;2023-08-31T03:33:43;123.40;;;115.15;;
16804;SDS011;8520;50.102;20.010;2023-08-31T03:36:11;123.15;;;114.78;;
16804;SDS011;8520;50.102;20.010;2023-08-31T03:38:39;124.10;;;115.53;;
16804;SDS011;8520;50.102;20.010;2023-08-31T03:41:08;122.25;;;114.15;;
16804;SDS011;8520;50.102;20.010;2023-08-31T03:43:39;125.03;;;116.43;;
16804;SDS011;8520;50.102;20.010;2023-08-31T03:46:07;123.10;;;114.80;;
16804;SDS011;8520;50.102;20.010;2023-08-31T03:48:35;126.82;;;117.78;;
16804;SDS011;8520;50.102;20.010;2023-08-31T03:51:04;126.78;;;117.88;;
16804;SDS011;8520;50.102;20.010;2023-08-31T03:53:32;128.40;;;119.47;;
16804;SDS011;8520;50.102;20.010;2023-08-31T03:56:01;127.47;;;118.70;;
16804;SDS011;8520;50.102;20.010;2023-08-31T03:58:31;128.95;;;119.78;;
16804;SDS011;8520;50.102;20.010;2023-08-31T04:01:01;127.70;;;118.97;;
16804;SDS011;8520;50.102;20.010;2023-08-31T04:03:29;130.07;;;121.15;;
16804;SDS011;8520;50.102;20.010;2023-08-31T04:05:57;131.15;;;121.93;;
16804;SDS011;8520;50.102;20.010;2023-08-31T04:08:25;133.40;;;124.10;;
16804;SDS011;8520;50.102;20.010;2023-08-31T04:10:54;135.18;;;125.30;;
16804;SDS011;8520;50.102;20.010;2023-08-31T04:13:22;136.90;;;127.05;;
16804;SDS011;8520;50.102;20.010;2023-08-31T04:15:50;137.23;;;127.57;;
16804;SDS011;8520;50.102;20.010;2023-08-31T04:18:20;136.55;;;126.72;;
16804;SDS011;8520;50.102;20.010;2023-08-31T04:20:48;135.90;;;126.00;;
16804;SDS011;8520;50.102;20.010;2023-08-31T04:23:17;140.32;;;130.13;;
16804;SDS011;8520;50.102;20.010;2023-08-31T04:25:45;136.52;;;126.63;;
16804;SDS011;8520;50.102;20.010;2023-08-31T04:28:14;134.13;;;124.68;;
16804;SDS011;8520;50.102;20.010;2023-08-31T04:30:42;134.05;;;124.75;;
16804;SDS011;8520;50.102;20.010;2023-08-31T04:33:11;134.13;;;124.80;;
16804;SDS011;8520;50.102;20.010;2023-08-31T04:35:41;130.80;;;121.43;;
16804;SDS011;8520;50.102;20.010;2023-08-31T04:38:09;128.48;;;119.57;;
16804;SDS011;8520;50.102;20.010;2023-08-31T04:40:37;125.88;;;117.20;;
16804;SDS011;8520;50.102;20.010;2023-08-31T04:43:05;128.27;;;119.35;;
16804;SDS011;8520;50.102;20.010;2023-08-31T04:45:33;126.28;;;117.68;;
16804;SDS011;8520;50.102;20.010;2023-08-31T04:48:01;126.45;;;117.88;;
16804;SDS011;8520;50.102;20.010;2023-08-31T04:50:30;125.80;;;117.30;;
16804;SDS011;8520;50.102;20.010;2023-08-31T04:52:59;126.15;;;117.38;;
16804;SDS011;8520;50.102;20.010;2023-08-31T04:55:27;123.75;;;115.35;;
16804;SDS011;8520;50.102;20.010;2023-08-31T04:57:55;121.93;;;113.72;;
16804;SDS011;8520;50.102;20.010;2023-08-31T05:00:24;120.03;;;112.07;;
16804;SDS011;8520;50.102;20.010;2023-08-31T05:02:52;117.00;;;109.00;;
16804;SDS011;8520;50.102;20.010;2023-08-31T05:05:20;117.43;;;109.22;;
16804;SDS011;8520;50.102;20.010;2023-08-31T05:07:48;115.35;;;107.70;;
16804;SDS011;8520;50.102;20.010;2023-08-31T05:10:17;116.13;;;108.50;;
16804;SDS011;8520;50.102;20.010;2023-08-31T05:12:45;111.90;;;104.72;;
16804;SDS011;8520;50.102;20.010;2023-08-31T05:15:13;113.70;;;106.25;;
16804;SDS011;8520;50.102;20.010;2023-08-31T05:17:41;109.00;;;102.22;;
16804;SDS011;8520;50.102;20.010;2023-08-31T05:20:09;106.97;;;99.82;;
16804;SDS011;8520;50.102;20.010;2023-08-31T05:22:38;102.90;;;96.55;;
16804;SDS011;8520;50.102;20.010;2023-08-31T05:25:06;98.40;;;92.30;;
16804;SDS011;8520;50.102;20.010;2023-08-31T05:27:35;94.85;;;89.35;;
16804;SDS011;8520;50.102;20.010;2023-08-31T05:30:03;96.03;;;90.22;;
16804;SDS011;8520;50.102;20.010;2023-08-31T05:32:31;93.40;;;87.80;;
16804;SDS011;8520;50.102;20.010;2023-08-31T05:34:59;95.40;;;89.57;;
16804;SDS011;8520;50.102;20.010;2023-08-31T05:37:30;94.65;;;89.03;;
16804;SDS011;8520;50.102;20.010;2023-08-31T05:39:59;95.82;;;89.95;;
16804;SDS011;8520;50.102;20.010;2023-08-31T05:42:27;96.28;;;90.57;;
16804;SDS011;8520;50.102;20.010;2023-08-31T05:44:57;96.60;;;90.85;;
16804;SDS011;8520;50.102;20.010;2023-08-31T05:47:25;96.57;;;90.78;;
16804;SDS011;8520;50.102;20.010;2023-08-31T05:49:53;94.57;;;89.13;;
16804;SDS011;8520;50.102;20.010;2023-08-31T05:52:21;93.70;;;88.28;;
16804;SDS011;8520;50.102;20.010;2023-08-31T05:54:49;88.93;;;83.72;;
16804;SDS011;8520;50.102;20.010;2023-08-31T05:57:19;87.10;;;81.97;;
16804;SDS011;8520;50.102;20.010;2023-08-31T05:59:48;85.90;;;81.03;;
16804;SDS011;8520;50.102;20.010;2023-08-31T06:02:18;86.75;;;81.57;;
16804;SDS011;8520;50.102;20.010;2023-08-31T06:04:46;84.20;;;79.38;;
16804;SDS011;8520;50.102;20.010;2023-08-31T06:07:13;79.53;;;75.13;;
16804;SDS011;8520;50.102;20.010;2023-08-31T06:09:41;76.50;;;72.10;;
16804;SDS011;8520;50.102;20.010;2023-08-31T06:12:09;74.88;;;70.57;;
16804;SDS011;8520;50.102;20.010;2023-08-31T06:14:37;71.18;;;67.28;;
16804;SDS011;8520;50.102;20.010;2023-08-31T06:17:05;69.60;;;65.78;;
16804;SDS011;8520;50.102;20.010;2023-08-31T06:19:36;69.03;;;65.22;;
16804;SDS011;8520;50.102;20.010;2023-08-31T06:22:04;69.65;;;65.72;;
16804;SDS011;8520;50.102;20.010;2023-08-31T06:24:32;67.18;;;63.53;;
16804;SDS011;8520;50.102;20.010;2023-08-31T06:27:00;64.00;;;60.38;;
16804;SDS011;8520;50.102;20.010;2023-08-31T06:29:28;59.60;;;56.50;;
16804;SDS011;8520;50.102;20.010;2023-08-31T06:31:56;57.25;;;54.15;;
16804;SDS011;8520;50.102;20.010;2023-08-31T06:34:24;57.17;;;53.97;;
16804;SDS011;8520;50.102;20.010;2023-08-31T06:36:53;54.55;;;51.65;;
16804;SDS011;8520;50.102;20.010;2023-08-31T06:39:25;54.83;;;51.85;;
16804;SDS011;8520;50.102;20.010;2023-08-31T06:41:53;55.45;;;52.45;;
16804;SDS011;8520;50.102;20.010;2023-08-31T06:44:28;55.80;;;52.80;;
16804;SDS011;8520;50.102;20.010;2023-08-31T06:46:57;54.17;;;51.33;;
16804;SDS011;8520;50.102;20.010;2023-08-31T06:49:24;52.20;;;49.35;;
16804;SDS011;8520;50.102;20.010;2023-08-31T06:51:55;50.95;;;48.20;;
16804;SDS011;8520;50.102;20.010;2023-08-31T06:54:23;48.38;;;45.85;;
16804;SDS011;8520;50.102;20.010;2023-08-31T06:56:51;47.00;;;44.67;;
16804;SDS011;8520;50.102;20.010;2023-08-31T06:59:19;45.70;;;43.30;;
16804;SDS011;8520;50.102;20.010;2023-08-31T07:01:47;42.78;;;40.47;;
16804;SDS011;8520;50.102;20.010;2023-08-31T07:04:15;41.50;;;39.40;;
16804;SDS011;8520;50.102;20.010;2023-08-31T07:06:43;43.28;;;41.13;;
16804;SDS011;8520;50.102;20.010;2023-08-31T07:09:12;43.97;;;41.88;;
16804;SDS011;8520;50.102;20.010;2023-08-31T07:11:40;42.95;;;40.95;;
16804;SDS011;8520;50.102;20.010;2023-08-31T07:14:08;41.97;;;39.97;;
16804;SDS011;8520;50.102;20.010;2023-08-31T07:16:36;39.25;;;37.42;;
16804;SDS011;8520;50.102;20.010;2023-08-31T07:19:04;37.20;;;35.45;;
16804;SDS011;8520;50.102;20.010;2023-08-31T07:21:32;35.78;;;34.00;;
16804;SDS011;8520;50.102;20.010;2023-08-31T07:24:00;35.53;;;33.92;;
16804;SDS011;8520;50.102;20.010;2023-08-31T07:26:30;32.05;;;30.67;;
16804;SDS011;8520;50.102;20.010;2023-08-31T07:28:58;28.98;;;27.67;;
16804;SDS011;8520;50.102;20.010;2023-08-31T07:31:28;28.05;;;26.75;;
16804;SDS011;8520;50.102;20.010;2023-08-31T07:33:56;26.17;;;24.98;;
16804;SDS011;8520;50.102;20.010;2023-08-31T07:36:24;23.98;;;22.88;;
16804;SDS011;8520;50.102;20.010;2023-08-31T07:38:52;22.80;;;21.90;;
16804;SDS011;8520;50.102;20.010;2023-08-31T07:41:20;22.27;;;21.20;;
16804;SDS011;8520;50.102;20.010;2023-08-31T07:43:50;21.63;;;20.67;;
16804;SDS011;8520;50.102;20.010;2023-08-31T07:46:29;24.05;;;22.80;;
16804;SDS011;8520;50.102;20.010;2023-08-31T07:48:57;23.98;;;22.90;;
16804;SDS011;8520;50.102;20.010;2023-08-31T07:51:25;24.00;;;23.00;;
16804;SDS011;8520;50.102;20.010;2023-08-31T07:53:53;23.27;;;22.25;;
16804;SDS011;8520;50.102;20.010;2023-08-31T07:56:22;22.80;;;21.77;;
16804;SDS011;8520;50.102;20.010;2023-08-31T07:58:51;21.67;;;20.77;;
16804;SDS011;8520;50.102;20.010;2023-08-31T08:01:19;19.90;;;19.00;;
16804;SDS011;8520;50.102;20.010;2023-08-31T08:03:47;19.02;;;18.02;;
16804;SDS011;8520;50.102;20.010;2023-08-31T08:06:16;17.15;;;16.35;;
16804;SDS011;8520;50.102;20.010;2023-08-31T08:08:44;16.08;;;15.38;;
16804;SDS011;8520;50.102;20.010;2023-08-31T08:11:12;16.27;;;15.57;;
16804;SDS011;8520;50.102;20.010;2023-08-31T08:13:40;16.02;;;15.13;;
16804;SDS011;8520;50.102;20.010;2023-08-31T08:16:09;15.93;;;14.93;;
16804;SDS011;8520;50.102;20.010;2023-08-31T08:18:37;14.90;;;14.30;;
16804;SDS011;8520;50.102;20.010;2023-08-31T08:21:05;14.32;;;13.65;;
16804;SDS011;8520;50.102;20.010;2023-08-31T08:23:33;15.43;;;14.73;;
16804;SDS011;8520;50.102;20.010;2023-08-31T08:26:01;15.00;;;14.40;;
16804;SDS011;8520;50.102;20.010;2023-08-31T08:28:29;14.43;;;13.80;;
16804;SDS011;8520;50.102;20.010;2023-08-31T08:30:57;13.98;;;13.38;;
16804;SDS011;8520;50.102;20.010;2023-08-31T08:33:26;12.82;;;12.30;;
16804;SDS011;8520;50.102;20.010;2023-08-31T08:35:55;13.60;;;12.80;;
16804;SDS011;8520;50.102;20.010;2023-08-31T08:38:23;12.63;;;12.07;;
16804;SDS011;8520;50.102;20.010;2023-08-31T08:40:51;11.82;;;11.27;;
16804;SDS011;8520;50.102;20.010;2023-08-31T08:43:20;11.23;;;10.73;;
16804;SDS011;8520;50.102;20.010;2023-08-31T08:45:51;10.77;;;10.27;;
16804;SDS011;8520;50.102;20.010;2023-08-31T08:48:19;11.13;;;10.43;;
16804;SDS011;8520;50.102;20.010;2023-08-31T08:50:49;10.60;;;10.15;;
16804;SDS011;8520;50.102;20.010;2023-08-31T08:53:17;10.50;;;10.00;;
16804;SDS011;8520;50.102;20.010;2023-08-31T08:55:45;10.13;;;9.52;;
16804;SDS011;8520;50.102;20.010;2023-08-31T08:58:13;10.75;;;10.15;;
16804;SDS011;8520;50.102;20.010;2023-08-31T09:00:41;10.80;;;10.27;;
16804;SDS011;8520;50.102;20.010;2023-08-31T09:03:09;11.18;;;10.68;;
16804;SDS011;8520;50.102;20.010;2023-08-31T09:05:38;11.68;;;11.10;;
16804;SDS011;8520;50.102;20.010;2023-08-31T09:08:08;11.93;;;11.38;;
16804;SDS011;8520;50.102;20.010;2023-08-31T09:10:37;10.98;;;10.35;;
16804;SDS011;8520;50.102;20.010;2023-08-31T09:13:05;11.18;;;10.68;;
16804;SDS011;8520;50.102;20.010;2023-08-31T09:15:39;11.68;;;11.18;;
16804;SDS011;8520;50.102;20.010;2023-08-31T09:18:07;11.75;;;11.15;;
16804;SDS011;8520;50.102;20.010;2023-08-31T09:20:42;10.55;;;10.10;;
16804;SDS011;8520;50.102;20.010;2023-08-31T09:23:12;10.75;;;10.15;;
16804;SDS011;8520;50.102;20.010;2023-08-31T09:25:41;9.13;;;8.70;;
16804;SDS011;8520;50.102;20.010;2023-08-31T09:28:10;8.73;;;8.32;;
16804;SDS011;8520;50.102;20.010;2023-08-31T09:30:38;7.95;;;7.55;;
16804;SDS011;8520;50.102;20.010;2023-08-31T09:33:07;8.45;;;8.05;;
16804;SDS011;8520;50.102;20.010;2023-08-31T09:35:38;7.25;;;6.85;;
16804;SDS011;8520;50.102;20.010;2023-08-31T09:38:09;9.15;;;8.65;;
16804;SDS011;8520;50.102;20.010;2023-08-31T09:40:39;7.20;;;6.85;;
16804;SDS011;8520;50.102;20.010;2023-08-31T09:43:09;6.90;;;6.53;;
16804;SDS011;8520;50.102;20.010;2023-08-31T09:45:37;7.60;;;7.28;;
16804;SDS011;8520;50.102;20.010;2023-08-31T09:48:12;7.40;;;6.90;;
16804;SDS011;8520;50.102;20.010;2023-08-31T09:50:42;6.30;;;6.00;;
16804;SDS011;8520;50.102;20.010;2023-08-31T09:53:11;6.65;;;6.25;;
16804;SDS011;8520;50.102;20.010;2023-08-31T09:55:41;6.95;;;6.55;;
16804;SDS011;8520;50.102;20.010;2023-08-31T09:58:09;6.75;;;6.25;;
16804;SDS011;8520;50.102;20.010;2023-08-31T10:00:40;6.35;;;6.05;;
16804;SDS011;8520;50.102;20.010;2023-08-31T10:03:08;6.63;;;6.32;;
16804;SDS011;8520;50.102;20.010;2023-08-31T10:05:39;6.80;;;6.40;;
16804;SDS011;8520;50.102;20.010;2023-08-31T10:08:07;5.20;;;5.00;;
16804;SDS011;8520;50.102;20.010;2023-08-31T10:10:35;5.40;;;5.00;;
16804;SDS011;8520;50.102;20.010;2023-08-31T10:13:06;5.90;;;5.50;;
16804;SDS011;8520;50.102;20.010;2023-08-31T10:15:34;5.55;;;5.35;;
16804;SDS011;8520;50.102;20.010;2023-08-31T10:18:05;5.88;;;5.57;;
16804;SDS011;8520;50.102;20.010;2023-08-31T10:20:33;5.55;;;5.25;;
16804;SDS011;8520;50.102;20.010;2023-08-31T10:23:02;5.95;;;5.65;;
16804;SDS011;8520;50.102;20.010;2023-08-31T10:28:19;5.90;;;5.60;;
16804;SDS011;8520;50.102;20.010;2023-08-31T10:30:59;6.88;;;6.47;;
16804;SDS011;8520;50.102;20.010;2023-08-31T10:33:28;5.82;;;5.57;;
16804;SDS011;8520;50.102;20.010;2023-08-31T10:35:56;6.25;;;5.95;;
16804;SDS011;8520;50.102;20.010;2023-08-31T10:38:25;5.45;;;5.05;;
16804;SDS011;8520;50.102;20.010;2023-08-31T10:41:00;6.70;;;6.10;;
16804;SDS011;8520;50.102;20.010;2023-08-31T10:49:00;6.30;;;5.90;;
16804;SDS011;8520;50.102;20.010;2023-08-31T10:51:30;5.20;;;4.70;;
16804;SDS011;8520;50.102;20.010;2023-08-31T10:54:05;4.88;;;4.68;;
16804;SDS011;8520;50.102;20.010;2023-08-31T10:56:33;4.28;;;4.07;;
16804;SDS011;8520;50.102;20.010;2023-08-31T10:59:01;4.20;;;4.00;;
16804;SDS011;8520;50.102;20.010;2023-08-31T11:04:20;5.93;;;4.57;;
16804;SDS011;8520;50.102;20.010;2023-08-31T11:06:48;4.50;;;4.20;;
16804;SDS011;8520;50.102;20.010;2023-08-31T11:09:19;4.55;;;4.35;;
16804;SDS011;8520;50.102;20.010;2023-08-31T11:11:47;4.20;;;4.00;;
16804;SDS011;8520;50.102;20.010;2023-08-31T11:14:16;4.75;;;4.55;;
16804;SDS011;8520;50.102;20.010;2023-08-31T11:16:44;4.82;;;4.63;;
16804;SDS011;8520;50.102;20.010;2023-08-31T11:19:12;4.50;;;4.30;;
16804;SDS011;8520;50.102;20.010;2023-08-31T11:21:42;4.88;;;4.68;;
16804;SDS011;8520;50.102;20.010;2023-08-31T11:24:10;5.13;;;4.93;;
16804;SDS011;8520;50.102;20.010;2023-08-31T11:26:38;4.93;;;4.53;;
16804;SDS011;8520;50.102;20.010;2023-08-31T11:29:06;4.45;;;4.25;;
16804;SDS011;8520;50.102;20.010;2023-08-31T11:31:38;4.20;;;3.92;;
16804;SDS011;8520;50.102;20.010;2023-08-31T11:34:07;4.68;;;4.38;;
16804;SDS011;8520;50.102;20.010;2023-08-31T11:36:35;4.55;;;4.35;;
16804;SDS011;8520;50.102;20.010;2023-08-31T11:39:05;4.70;;;4.50;;
16804;SDS011;8520;50.102;20.010;2023-08-31T11:41:33;4.35;;;4.15;;
16804;SDS011;8520;50.102;20.010;2023-08-31T11:44:03;5.00;;;4.70;;
16804;SDS011;8520;50.102;20.010;2023-08-31T11:46:31;5.88;;;4.90;;
16804;SDS011;8520;50.102;20.010;2023-08-31T11:49:00;4.63;;;4.43;;
16804;SDS011;8520;50.102;20.010;2023-08-31T11:51:27;4.18;;;3.97;;
16804;SDS011;8520;50.102;20.010;2023-08-31T11:53:57;5.10;;;4.80;;
16804;SDS011;8520;50.102;20.010;2023-08-31T11:56:27;4.20;;;4.00;;
16804;SDS011;8520;50.102;20.010;2023-08-31T11:58:55;4.90;;;4.60;;
16804;SDS011;8520;50.102;20.010;2023-08-31T12:01:30;4.53;;;4.25;;
16804;SDS011;8520;50.102;20.010;2023-08-31T12:03:58;4.60;;;4.30;;
16804;SDS011;8520;50.102;20.010;2023-08-31T12:06:27;4.45;;;4.25;;
16804;SDS011;8520;50.102;20.010;2023-08-31T12:08:55;4.40;;;4.05;;
16804;SDS011;8520;50.102;20.010;2023-08-31T12:11:23;4.53;;;4.32;;
16804;SDS011;8520;50.102;20.010;2023-08-31T12:13:52;4.28;;;3.88;;
16804;SDS011;8520;50.102;20.010;2023-08-31T12:16:20;4.72;;;4.53;;
16804;SDS011;8520;50.102;20.010;2023-08-31T12:18:48;5.35;;;5.05;;
16804;SDS011;8520;50.102;20.010;2023-08-31T12:21:18;4.63;;;4.35;;
16804;SDS011;8520;50.102;20.010;2023-08-31T12:23:46;3.67;;;3.47;;
16804;SDS011;8520;50.102;20.010;2023-08-31T12:26:14;4.00;;;3.80;;
16804;SDS011;8520;50.102;20.010;2023-08-31T12:28:42;4.53;;;4.20;;
16804;SDS011;8520;50.102;20.010;2023-08-31T12:31:12;4.38;;;4.18;;
16804;SDS011;8520;50.102;20.010;2023-08-31T12:33:41;3.90;;;3.70;;
16804;SDS011;8520;50.102;20.010;2023-08-31T12:36:09;4.63;;;4.43;;
16804;SDS011;8520;50.102;20.010;2023-08-31T12:38:37;4.53;;;4.22;;
16804;SDS011;8520;50.102;20.010;2023-08-31T12:41:05;4.63;;;4.32;;
16804;SDS011;8520;50.102;20.010;2023-08-31T12:43:33;4.07;;;3.88;;
16804;SDS011;8520;50.102;20.010;2023-08-31T12:46:01;5.10;;;4.80;;
16804;SDS011;8520;50.102;20.010;2023-08-31T12:48:33;4.45;;;4.18;;
16804;SDS011;8520;50.102;20.010;2023-08-31T12:51:01;4.22;;;4.03;;
16804;SDS011;8520;50.102;20.010;2023-08-31T12:53:29;4.55;;;4.35;;
16804;SDS011;8520;50.102;20.010;2023-08-31T12:55:57;4.85;;;4.65;;
16804;SDS011;8520;50.102;20.010;2023-08-31T12:58:26;4.97;;;4.68;;
16804;SDS011;8520;50.102;20.010;2023-08-31T13:00:54;5.43;;;5.13;;
16804;SDS011;8520;50.102;20.010;2023-08-31T13:03:25;4.85;;;4.65;;
16804;SDS011;8520;50.102;20.010;2023-08-31T13:05:56;5.22;;;4.93;;
16804;SDS011;8520;50.102;20.010;2023-08-31T13:08:24;5.47;;;5.28;;
16804;SDS011;8520;50.102;20.010;2023-08-31T13:10:52;5.22;;;4.93;;
16804;SDS011;8520;50.102;20.010;2023-08-31T13:13:21;4.65;;;4.45;;
16804;SDS011;8520;50.102;20.010;2023-08-31T13:15:49;5.65;;;5.28;;
16804;SDS011;8520;50.102;20.010;2023-08-31T13:18:17;4.90;;;4.70;;
16804;SDS011;8520;50.102;20.010;2023-08-31T13:20:48;5.55;;;5.15;;
16804;SDS011;8520;50.102;20.010;2023-08-31T13:23:18;5.28;;;4.97;;
16804;SDS011;8520;50.102;20.010;2023-08-31T13:25:46;7.30;;;6.85;;
16804;SDS011;8520;50.102;20.010;2023-08-31T13:28:14;5.90;;;5.60;;
16804;SDS011;8520;50.102;20.010;2023-08-31T13:30:42;4.95;;;4.65;;
16804;SDS011;8520;50.102;20.010;2023-08-31T13:33:10;4.75;;;4.55;;
16804;SDS011;8520;50.102;20.010;2023-08-31T13:35:38;4.25;;;4.05;;
16804;SDS011;8520;50.102;20.010;2023-08-31T13:38:06;4.55;;;4.35;;
16804;SDS011;8520;50.102;20.010;2023-08-31T13:40:35;4.97;;;4.68;;
16804;SDS011;8520;50.102;20.010;2023-08-31T13:43:03;4.50;;;4.30;;
16804;SDS011;8520;50.102;20.010;2023-08-31T13:45:32;4.43;;;4.07;;
16804;SDS011;8520;50.102;20.010;2023-08-31T13:48:00;4.53;;;4.32;;
16804;SDS011;8520;50.102;20.010;2023-08-31T13:50:28;5.20;;;4.90;;
16804;SDS011;8520;50.102;20.010;2023-08-31T13:52:56;4.43;;;4.13;;
16804;SDS011;8520;50.102;20.010;2023-08-31T13:55:24;4.80;;;4.60;;
16804;SDS011;8520;50.102;20.010;2023-08-31T13:57:54;4.70;;;4.50;;
16804;SDS011;8520;50.102;20.010;2023-08-31T14:00:22;4.60;;;4.30;;
16804;SDS011;8520;50.102;20.010;2023-08-31T14:02:50;4.75;;;4.40;;
16804;SDS011;8520;50.102;20.010;2023-08-31T14:05:18;4.82;;;4.53;;
16804;SDS011;8520;50.102;20.010;2023-08-31T14:07:46;4.55;;;4.35;;
16804;SDS011;8520;50.102;20.010;2023-08-31T14:10:14;5.00;;;4.60;;
16804;SDS011;8520;50.102;20.010;2023-08-31T14:12:42;4.65;;;4.30;;
16804;SDS011;8520;50.102;20.010;2023-08-31T14:15:16;5.00;;;4.80;;
16804;SDS011;8520;50.102;20.010;2023-08-31T14:17:44;6.43;;;5.88;;
16804;SDS011;8520;50.102;20.010;2023-08-31T14:20:12;4.78;;;4.47;;
16804;SDS011;8520;50.102;20.010;2023-08-31T14:22:40;5.13;;;4.90;;
16804;SDS011;8520;50.102;20.010;2023-08-31T14:25:10;5.25;;;4.93;;
16804;SDS011;8520;50.102;20.010;2023-08-31T14:27:38;5.43;;;5.10;;
16804;SDS011;8520;50.102;20.010;2023-08-31T14:30:07;4.50;;;4.28;;
16804;SDS011;8520;50.102;20.010;2023-08-31T14:32:36;4.22;;;4.03;;
16804;SDS011;8520;50.102;20.010;2023-08-31T14:35:05;5.10;;;4.80;;
16804;SDS011;8520;50.102;20.010;2023-08-31T14:37:33;4.78;;;4.57;;
16804;SDS011;8520;50.102;20.010;2023-08-31T14:40:02;4.88;;;4.57;;
16804;SDS011;8520;50.102;20.010;2023-08-31T14:42:33;5.07;;;4.50;;